Hovedside
METAR-TAF:

METAR-TAF

Lufthavner :

Kristianstad, Sverige

breddegrad: 55-55N, lengdegrad: 014-05E, høyde over havet: 23 m

Gjeldene værobservasjon

Denne rapporten ble laget for 24 minutter siden, klokken 07:20 UTC
Vind 6 kt fra Øst
Temperatur 8°C
Luftfuktighet 87%
Trykk 1024 hPa
Sikt 10 km eller mer
Brutte skyer i en høyde av 2000 ft

METAR: ESMK 240720Z 09006KT 9999 BKN020 08/06 Q1024

Tid: 09:44 (07:44 UTC)

Varsel

Denne rapporten ble laget for 2 timer og 47 minutter siden, klokken 04:57 UTC
Varsel gyldig fra 24. klokken 06 UTC til 24. klokken 15 UTC
Vind 6 kt fra Øst
Sikt 10 km eller mer
Brutte skyer i en høyde av 2500 ft

TAF: ESMK 240457Z 2406/2415 08006KT 9999 BKN025

Værobservasjoner og værvarsel for over 4000 flyplasser (METAR- og TAF-rapporter).

Tilgjengelige stasjoner er representert av de røde og gule prikkene på kartet.

Hold musepekeren over prikken for å se navnet på stasjonen.

Klikk så for å se værobservasjoner og -varsler.

For å forandre kartet kan du klikke på den grønne knappen med svart kryss for å zoome inn, på den grønne knappen med strek for å zoome ut, eller på de grønne pilene for å se tilstøtende kart.


METAR-TAF: